Time;durP1;ratioP1;P1;durP2;ratioP2;P2;SDS_P1;SDS_P2;PMS_P1;PMS_P2;Temp;Humidity;BMP_temperature;BMP_pressure;BME280_temperature;BME280_humidity;BME280_pressure;Samples;Min_cycle;Max_cycle;Signal;HPM_P1;HPM_P2
2023/10/14 00:01:56;;;;;;;4.10;0.70;;;;;;;;;;5068388;28;20231;-75
2023/10/14 00:04:26;;;;;;;3.03;0.90;;;;;;;;;;5064208;28;20209;-75
2023/10/14 00:06:51;;;;;;;2.25;0.80;;;;;;;;;;5077398;28;20605;-75
2023/10/14 00:09:17;;;;;;;2.33;0.77;;;;;;;;;;5066474;28;20204;-75
2023/10/14 00:11:51;;;;;;;2.30;0.82;;;;;;;;;;5058771;28;20544;-74
2023/10/14 00:14:18;;;;;;;4.18;0.90;;;;;;;;;;5057119;28;20196;-76
2023/10/14 00:16:54;;;;;;;3.40;0.70;;;;;;;;;;5054292;28;20220;-76
2023/10/14 00:19:21;;;;;;;5.63;0.90;;;;;;;;;;5054066;28;20231;-76
2023/10/14 00:21:50;;;;;;;3.03;0.70;;;;;;;;;;5056728;28;20255;-76
2023/10/14 00:24:27;;;;;;;2.15;0.50;;;;;;;;;;5059956;28;20204;-76
2023/10/14 00:26:53;;;;;;;2.58;0.68;;;;;;;;;;5052827;28;20245;-76
2023/10/14 00:29:21;;;;;;;3.05;0.70;;;;;;;;;;5058679;28;20211;-75
2023/10/14 00:31:49;;;;;;;2.60;0.80;;;;;;;;;;5063844;28;20254;-77
2023/10/14 00:34:15;;;;;;;3.08;0.82;;;;;;;;;;5064436;28;20189;-76
2023/10/14 00:36:42;;;;;;;0.60;0.35;;;;;;;;;;5049457;28;20600;-76
2023/10/14 00:39:22;;;;;;;4.93;0.40;;;;;;;;;;5061107;28;20212;-77
2023/10/14 00:41:51;;;;;;;4.32;0.55;;;;;;;;;;5050776;28;20250;-76
2023/10/14 00:44:18;;;;;;;1.95;0.60;;;;;;;;;;5050074;28;20177;-76
2023/10/14 00:46:50;;;;;;;4.68;0.60;;;;;;;;;;5063264;28;20511;-76
2023/10/14 00:49:17;;;;;;;3.20;0.60;;;;;;;;;;5091110;28;20178;-76
2023/10/14 00:51:45;;;;;;;2.78;0.82;;;;;;;;;;5060847;28;20193;-76
2023/10/14 00:54:26;;;;;;;2.85;0.50;;;;;;;;;;5061040;28;20208;-76
2023/10/14 00:56:52;;;;;;;1.63;0.73;;;;;;;;;;5049928;28;20177;-76
2023/10/14 00:59:18;;;;;;;1.17;0.35;;;;;;;;;;5049967;28;20228;-76
2023/10/14 01:01:55;;;;;;;3.65;0.57;;;;;;;;;;5059963;28;20201;-76
2023/10/14 01:04:22;;;;;;;1.23;0.40;;;;;;;;;;5058783;28;20193;-76
2023/10/14 01:07:04;;;;;;;3.22;0.50;;;;;;;;;;5091889;28;20204;-76
2023/10/14 01:12:16;;;;;;;3.72;0.93;;;;;;;;;;5082864;28;20184;-77
2023/10/14 01:14:46;;;;;;;4.22;0.60;;;;;;;;;;5060764;28;20661;-77
2023/10/14 01:17:26;;;;;;;3.40;0.75;;;;;;;;;;5049348;28;20536;-77
2023/10/14 01:19:52;;;;;;;2.15;0.70;;;;;;;;;;5051531;28;20640;-76
2023/10/14 01:22:17;;;;;;;3.33;0.80;;;;;;;;;;5047241;28;20181;-75
2023/10/14 01:24:43;;;;;;;5.80;1.10;;;;;;;;;;5053554;28;20258;-73
2023/10/14 01:27:10;;;;;;;5.30;0.82;;;;;;;;;;5065723;28;20182;-75
2023/10/14 01:29:39;;;;;;;4.45;1.00;;;;;;;;;;5063884;28;20192;-77
2023/10/14 01:32:37;;;;;;;6.97;1.00;;;;;;;;;;5067509;28;20200;-77
2023/10/14 01:35:13;;;;;;;7.50;1.52;;;;;;;;;;5059822;28;20313;-72
2023/10/14 01:37:45;;;;;;;9.23;1.63;;;;;;;;;;5066944;28;20778;-75
2023/10/14 01:42:56;;;;;;;9.40;1.13;;;;;;;;;;5067665;28;20200;-77
2023/10/14 01:45:31;;;;;;;6.45;1.25;;;;;;;;;;5051506;28;20278;-76
2023/10/14 01:50:37;;;;;;;8.88;1.55;;;;;;;;;;5067847;28;20218;-77
2023/10/14 01:53:10;;;;;;;10.93;1.55;;;;;;;;;;5064450;28;20274;-76
2023/10/14 01:55:35;;;;;;;8.77;1.33;;;;;;;;;;5055025;28;20616;-76
2023/10/14 01:58:10;;;;;;;13.27;1.45;;;;;;;;;;5071906;28;20199;-77
2023/10/14 02:00:37;;;;;;;13.43;2.15;;;;;;;;;;5073240;28;20277;-77
2023/10/14 02:03:06;;;;;;;9.30;1.52;;;;;;;;;;5072201;28;20195;-77
2023/10/14 02:05:40;;;;;;;13.13;2.13;;;;;;;;;;5042341;28;20609;-77
2023/10/14 02:08:21;;;;;;;12.90;1.70;;;;;;;;;;5069438;28;20193;-77
2023/10/14 02:10:47;;;;;;;14.95;1.48;;;;;;;;;;5041983;28;20185;-77
2023/10/14 02:13:21;;;;;;;8.50;1.73;;;;;;;;;;5071141;28;20230;-77
2023/10/14 02:15:47;;;;;;;9.23;1.77;;;;;;;;;;5050807;28;20188;-77
2023/10/14 02:18:23;;;;;;;13.40;1.90;;;;;;;;;;5086949;28;20198;-77
2023/10/14 02:21:05;;;;;;;12.65;2.17;;;;;;;;;;5070185;28;20208;-77
2023/10/14 02:23:49;;;;;;;12.40;1.52;;;;;;;;;;5061933;28;20200;-77
2023/10/14 02:26:16;;;;;;;6.85;2.03;;;;;;;;;;5059651;28;20275;-74
2023/10/14 02:28:45;;;;;;;7.45;1.85;;;;;;;;;;5066297;28;20208;-77
2023/10/14 02:31:18;;;;;;;11.85;1.65;;;;;;;;;;5064838;28;20250;-77
2023/10/14 02:33:47;;;;;;;14.43;2.58;;;;;;;;;;5072316;28;20185;-77
2023/10/14 02:36:17;;;;;;;16.52;1.70;;;;;;;;;;5071492;28;20185;-77
2023/10/14 02:38:45;;;;;;;8.88;1.55;;;;;;;;;;5088282;28;20514;-76
2023/10/14 02:41:14;;;;;;;16.05;1.60;;;;;;;;;;5069003;28;20587;-76
2023/10/14 02:43:42;;;;;;;7.68;1.27;;;;;;;;;;5070704;28;20221;-76
2023/10/14 02:46:11;;;;;;;10.32;2.20;;;;;;;;;;5069024;28;20344;-77
2023/10/14 02:48:52;;;;;;;10.85;1.50;;;;;;;;;;5070462;28;20184;-76
2023/10/14 02:51:29;;;;;;;11.25;2.55;;;;;;;;;;5047176;28;20185;-77
2023/10/14 02:53:56;;;;;;;12.20;1.70;;;;;;;;;;5060803;28;20623;-77
2023/10/14 02:56:32;;;;;;;10.07;1.83;;;;;;;;;;5063478;28;20280;-77
2023/10/14 02:58:58;;;;;;;9.95;1.88;;;;;;;;;;5060207;28;22180;-77
2023/10/14 03:01:31;;;;;;;14.80;1.88;;;;;;;;;;5064992;28;20232;-77
2023/10/14 03:04:08;;;;;;;10.13;1.75;;;;;;;;;;5067359;28;20253;-77
2023/10/14 03:06:46;;;;;;;6.35;1.50;;;;;;;;;;5056948;28;20201;-77
2023/10/14 03:09:20;;;;;;;11.65;1.67;;;;;;;;;;5060879;28;20187;-77
2023/10/14 03:11:47;;;;;;;11.77;1.60;;;;;;;;;;5070335;28;20238;-77
2023/10/14 03:14:15;;;;;;;15.93;2.58;;;;;;;;;;5067072;28;20212;-78
2023/10/14 03:16:40;;;;;;;12.05;1.48;;;;;;;;;;5065540;28;20180;-77
2023/10/14 03:19:06;;;;;;;10.82;2.00;;;;;;;;;;5059952;28;20295;-77
2023/10/14 03:21:34;;;;;;;13.35;1.73;;;;;;;;;;5064968;28;20543;-77
2023/10/14 03:23:59;;;;;;;8.38;1.63;;;;;;;;;;5063838;28;20193;-78
2023/10/14 03:26:32;;;;;;;13.90;2.47;;;;;;;;;;5066189;28;20630;-76
2023/10/14 03:28:58;;;;;;;12.93;2.40;;;;;;;;;;5055296;28;20687;-77
2023/10/14 03:31:25;;;;;;;8.40;1.60;;;;;;;;;;5065811;28;20200;-77
2023/10/14 03:33:57;;;;;;;17.42;2.35;;;;;;;;;;5049341;28;20194;-77
2023/10/14 03:36:28;;;;;;;14.85;2.25;;;;;;;;;;5070460;28;20185;-77
2023/10/14 03:38:58;;;;;;;8.55;1.65;;;;;;;;;;5070373;28;20640;-77
2023/10/14 03:41:29;;;;;;;12.43;1.80;;;;;;;;;;5040368;28;20188;-77
2023/10/14 03:44:05;;;;;;;9.10;1.77;;;;;;;;;;5070606;28;20241;-78
2023/10/14 03:46:32;;;;;;;13.85;2.50;;;;;;;;;;5070550;28;20184;-77
2023/10/14 03:49:25;;;;;;;9.13;2.10;;;;;;;;;;5067459;28;20200;-77
2023/10/14 03:51:54;;;;;;;10.60;2.25;;;;;;;;;;5052803;28;20280;-76
2023/10/14 03:54:24;;;;;;;13.85;1.90;;;;;;;;;;5069141;28;20323;-77
2023/10/14 03:56:50;;;;;;;12.77;2.35;;;;;;;;;;5063376;28;20188;-77
2023/10/14 03:59:25;;;;;;;14.93;2.72;;;;;;;;;;5057781;28;20241;-77
2023/10/14 04:02:05;;;;;;;12.20;2.00;;;;;;;;;;5054222;28;20213;-77
2023/10/14 04:04:32;;;;;;;14.23;2.03;;;;;;;;;;5050039;28;20618;-78
2023/10/14 04:09:43;;;;;;;14.50;1.88;;;;;;;;;;5091434;28;20220;-77
2023/10/14 04:12:36;;;;;;;13.07;1.90;;;;;;;;;;5053776;28;20248;-77
2023/10/14 04:15:31;;;;;;;14.35;1.70;;;;;;;;;;5060896;28;20559;-78
2023/10/14 04:17:55;;;;;;;14.20;1.80;;;;;;;;;;5060528;28;20196;-77
2023/10/14 04:20:22;;;;;;;12.38;2.50;;;;;;;;;;5063606;28;20208;-78
2023/10/14 04:22:51;;;;;;;9.77;1.50;;;;;;;;;;5054157;28;20238;-77
2023/10/14 04:30:32;;;;;;;13.52;1.83;;;;;;;;;;5069046;28;20192;-77
2023/10/14 04:35:31;;;;;;;6.68;1.73;;;;;;;;;;5048829;28;20197;-76
2023/10/14 04:37:58;;;;;;;11.82;1.35;;;;;;;;;;5063098;28;20732;-77
2023/10/14 04:45:51;;;;;;;14.05;2.70;;;;;;;;;;5052167;28;20231;-77
2023/10/14 04:48:16;;;;;;;18.48;2.50;;;;;;;;;;5065852;28;20608;-77
2023/10/14 04:50:44;;;;;;;14.80;1.45;;;;;;;;;;5069628;28;20177;-77
2023/10/14 04:53:13;;;;;;;13.70;2.22;;;;;;;;;;5058171;28;20193;-77
2023/10/14 04:55:43;;;;;;;11.57;1.95;;;;;;;;;;5049371;28;20280;-77
2023/10/14 04:58:12;;;;;;;18.10;1.67;;;;;;;;;;5044316;28;20640;-77
2023/10/14 05:00:42;;;;;;;12.27;1.60;;;;;;;;;;5037637;28;20308;-77
2023/10/14 05:03:18;;;;;;;13.82;2.03;;;;;;;;;;5056140;28;20604;-76
2023/10/14 05:05:55;;;;;;;14.52;1.85;;;;;;;;;;5056913;28;20181;-77
2023/10/14 05:08:23;;;;;;;12.68;2.42;;;;;;;;;;5059254;28;20233;-74
2023/10/14 05:10:56;;;;;;;13.20;2.28;;;;;;;;;;5058943;28;20234;-75
2023/10/14 05:13:31;;;;;;;17.88;2.40;;;;;;;;;;5054594;28;20191;-75
2023/10/14 05:16:15;;;;;;;15.80;1.92;;;;;;;;;;5095696;28;20619;-77
2023/10/14 05:18:43;;;;;;;12.20;1.63;;;;;;;;;;5087138;28;20193;-76
2023/10/14 05:21:35;;;;;;;13.07;2.08;;;;;;;;;;5073118;28;20238;-76
2023/10/14 05:24:02;;;;;;;13.30;1.80;;;;;;;;;;5070702;28;20194;-77
2023/10/14 05:26:27;;;;;;;8.52;1.80;;;;;;;;;;5054017;28;20200;-76
2023/10/14 05:28:53;;;;;;;19.13;2.05;;;;;;;;;;5054481;28;20189;-77
2023/10/14 05:31:18;;;;;;;15.02;1.90;;;;;;;;;;5069600;28;20189;-75
2023/10/14 05:33:44;;;;;;;23.73;3.72;;;;;;;;;;5066659;28;20520;-77
2023/10/14 05:36:09;;;;;;;16.30;1.80;;;;;;;;;;5057264;28;20264;-77
2023/10/14 05:38:35;;;;;;;13.23;1.70;;;;;;;;;;5069446;28;20250;-71
2023/10/14 05:41:01;;;;;;;19.38;2.17;;;;;;;;;;5059090;28;20209;-74
2023/10/14 05:43:27;;;;;;;10.07;1.90;;;;;;;;;;5078874;28;20203;-76
2023/10/14 05:45:52;;;;;;;15.85;2.97;;;;;;;;;;5065745;28;20192;-76
2023/10/14 05:48:19;;;;;;;16.00;2.60;;;;;;;;;;5066854;28;20301;-75
2023/10/14 05:50:44;;;;;;;13.93;2.28;;;;;;;;;;5057594;28;20181;-76
2023/10/14 05:53:12;;;;;;;19.77;2.00;;;;;;;;;;5065629;28;20659;-76
2023/10/14 05:55:39;;;;;;;16.35;2.25;;;;;;;;;;5056327;28;20189;-76
2023/10/14 05:58:06;;;;;;;13.73;1.30;;;;;;;;;;5084130;28;20196;-77
2023/10/14 06:00:34;;;;;;;15.93;2.30;;;;;;;;;;5050283;28;20225;-75
2023/10/14 06:03:00;;;;;;;13.25;1.75;;;;;;;;;;5061370;28;20238;-77
2023/10/14 06:05:31;;;;;;;14.93;1.77;;;;;;;;;;5064943;28;20205;-77
2023/10/14 06:08:00;;;;;;;16.60;2.30;;;;;;;;;;5063893;28;20190;-77
2023/10/14 06:10:29;;;;;;;18.67;2.13;;;;;;;;;;5074458;28;20620;-77
2023/10/14 06:12:56;;;;;;;16.92;1.67;;;;;;;;;;5054318;28;20189;-77
2023/10/14 06:15:22;;;;;;;11.20;1.50;;;;;;;;;;5066508;28;20194;-77
2023/10/14 06:17:49;;;;;;;20.30;2.60;;;;;;;;;;5061414;28;20394;-77
2023/10/14 06:20:16;;;;;;;12.85;1.40;;;;;;;;;;5079619;28;20213;-77
2023/10/14 06:22:57;;;;;;;16.67;1.92;;;;;;;;;;4719250;28;10000416;-77
2023/10/14 06:25:22;;;;;;;13.05;1.70;;;;;;;;;;5063165;28;20506;-77
2023/10/14 06:27:48;;;;;;;8.43;1.70;;;;;;;;;;5061960;28;20558;-78
2023/10/14 06:30:20;;;;;;;18.88;1.85;;;;;;;;;;5073308;28;20176;-78
2023/10/14 06:32:58;;;;;;;14.77;2.28;;;;;;;;;;5070500;28;20199;-78
2023/10/14 06:35:26;;;;;;;13.25;1.85;;;;;;;;;;5061398;28;20201;-76
2023/10/14 06:37:53;;;;;;;15.20;2.35;;;;;;;;;;5072570;28;20181;-77
2023/10/14 06:40:19;;;;;;;12.10;1.73;;;;;;;;;;5067573;28;20527;-75
2023/10/14 06:42:49;;;;;;;21.92;2.78;;;;;;;;;;5061072;28;20195;-76
2023/10/14 06:45:21;;;;;;;17.38;1.90;;;;;;;;;;5059753;28;20218;-76
2023/10/14 06:47:56;;;;;;;14.85;1.70;;;;;;;;;;5055589;28;20193;-76
2023/10/14 06:50:25;;;;;;;14.40;2.17;;;;;;;;;;5101944;27;20185;-75
2023/10/14 06:52:53;;;;;;;15.75;2.17;;;;;;;;;;5059066;28;20189;-77
2023/10/14 06:55:21;;;;;;;11.23;2.47;;;;;;;;;;5054922;28;20181;-76
2023/10/14 06:57:51;;;;;;;17.50;1.92;;;;;;;;;;5061955;28;20204;-76
2023/10/14 07:00:25;;;;;;;17.10;2.00;;;;;;;;;;5066648;28;20228;-75
2023/10/14 07:02:53;;;;;;;12.50;2.25;;;;;;;;;;5062277;28;20208;-76
2023/10/14 07:05:20;;;;;;;17.35;2.17;;;;;;;;;;5070397;28;20192;-77
2023/10/14 07:07:48;;;;;;;8.63;1.63;;;;;;;;;;5061091;28;20220;-76
2023/10/14 07:10:14;;;;;;;22.20;3.70;;;;;;;;;;5070019;28;20230;-77
2023/10/14 07:12:39;;;;;;;15.63;2.90;;;;;;;;;;5074571;28;20193;-76
2023/10/14 07:15:12;;;;;;;11.52;1.63;;;;;;;;;;5057370;28;20197;-77
2023/10/14 07:17:40;;;;;;;11.20;2.13;;;;;;;;;;5069432;28;20612;-76
2023/10/14 07:20:07;;;;;;;11.82;1.95;;;;;;;;;;5077857;28;20210;-76
2023/10/14 07:22:32;;;;;;;17.65;1.90;;;;;;;;;;5069724;28;20193;-75
2023/10/14 07:24:58;;;;;;;9.68;2.15;;;;;;;;;;5062560;28;20181;-77
2023/10/14 07:27:25;;;;;;;14.57;1.90;;;;;;;;;;5098860;27;20185;-77
2023/10/14 07:29:50;;;;;;;15.50;2.40;;;;;;;;;;5060867;28;20184;-77
2023/10/14 07:32:16;;;;;;;13.55;1.65;;;;;;;;;;5062990;28;20197;-75
2023/10/14 07:34:42;;;;;;;13.05;1.92;;;;;;;;;;5107697;27;20627;-76
2023/10/14 07:37:09;;;;;;;13.10;1.80;;;;;;;;;;5063559;28;20660;-76
2023/10/14 07:39:35;;;;;;;10.38;2.33;;;;;;;;;;5070058;28;20304;-76
2023/10/14 07:42:09;;;;;;;19.27;2.42;;;;;;;;;;5067696;28;20659;-76
2023/10/14 07:44:35;;;;;;;11.88;2.08;;;;;;;;;;5060956;28;20594;-76
2023/10/14 07:47:01;;;;;;;15.43;2.08;;;;;;;;;;5093238;27;20248;-76
2023/10/14 07:49:26;;;;;;;11.93;1.90;;;;;;;;;;5063600;28;20219;-76
2023/10/14 07:51:52;;;;;;;21.95;2.45;;;;;;;;;;5059094;28;20247;-76
2023/10/14 07:54:18;;;;;;;20.73;2.53;;;;;;;;;;5069422;28;20346;-76
2023/10/14 07:56:46;;;;;;;12.70;1.83;;;;;;;;;;5048260;28;20244;-77
2023/10/14 07:59:11;;;;;;;14.90;2.67;;;;;;;;;;5060941;28;20240;-71
2023/10/14 08:01:38;;;;;;;12.07;1.98;;;;;;;;;;5070574;28;20284;-76
2023/10/14 08:04:07;;;;;;;13.73;2.33;;;;;;;;;;5061551;28;20201;-76
2023/10/14 08:06:34;;;;;;;13.73;2.13;;;;;;;;;;5078136;28;20196;-74
2023/10/14 08:09:00;;;;;;;13.25;2.00;;;;;;;;;;5064596;28;20227;-73
2023/10/14 08:11:25;;;;;;;11.35;2.40;;;;;;;;;;5066206;28;20201;-75
2023/10/14 08:13:51;;;;;;;15.95;2.17;;;;;;;;;;5068438;28;20496;-76
2023/10/14 08:16:16;;;;;;;13.00;2.05;;;;;;;;;;5063659;28;20746;-75
2023/10/14 08:18:42;;;;;;;13.10;2.20;;;;;;;;;;5048893;28;20182;-75
2023/10/14 08:21:09;;;;;;;18.08;2.92;;;;;;;;;;5056837;28;20213;-75
2023/10/14 08:23:35;;;;;;;15.45;2.28;;;;;;;;;;5051311;28;20197;-76
2023/10/14 08:26:02;;;;;;;18.50;2.25;;;;;;;;;;5096407;27;20238;-72
2023/10/14 08:28:28;;;;;;;15.45;2.03;;;;;;;;;;5067797;28;20200;-76
2023/10/14 08:30:55;;;;;;;15.38;2.40;;;;;;;;;;5066119;28;20236;-72
2023/10/14 08:33:23;;;;;;;19.35;2.03;;;;;;;;;;5052129;28;20181;-73
2023/10/14 08:35:50;;;;;;;21.45;3.38;;;;;;;;;;5052926;28;20260;-75
2023/10/14 08:38:19;;;;;;;11.95;1.92;;;;;;;;;;5056059;28;20192;-72
2023/10/14 08:40:46;;;;;;;14.15;2.38;;;;;;;;;;5055589;28;20356;-72
2023/10/14 08:43:18;;;;;;;16.27;2.08;;;;;;;;;;5086477;28;20261;-73
2023/10/14 08:45:48;;;;;;;12.23;1.88;;;;;;;;;;5045559;28;20220;-75
2023/10/14 08:48:17;;;;;;;17.23;2.65;;;;;;;;;;5055347;28;20558;-74
2023/10/14 08:50:45;;;;;;;16.85;1.75;;;;;;;;;;5082434;28;20243;-74
2023/10/14 08:53:12;;;;;;;11.77;2.03;;;;;;;;;;5062432;28;20572;-75
2023/10/14 08:55:39;;;;;;;15.75;1.85;;;;;;;;;;5061749;28;20256;-71
2023/10/14 08:58:06;;;;;;;17.50;3.03;;;;;;;;;;5066116;28;20217;-73
2023/10/14 09:00:36;;;;;;;14.85;2.00;;;;;;;;;;5057771;28;20227;-74
2023/10/14 09:03:03;;;;;;;17.77;2.65;;;;;;;;;;5055446;28;20253;-75
2023/10/14 09:05:30;;;;;;;13.23;2.33;;;;;;;;;;5051017;28;20243;-73
2023/10/14 09:07:57;;;;;;;9.70;1.63;;;;;;;;;;5063470;28;20189;-74
2023/10/14 09:10:26;;;;;;;12.40;2.30;;;;;;;;;;5059192;28;20586;-75
2023/10/14 09:12:54;;;;;;;15.23;2.17;;;;;;;;;;5064096;28;20716;-73
2023/10/14 09:15:21;;;;;;;11.95;1.92;;;;;;;;;;5054697;28;20604;-73
2023/10/14 09:17:46;;;;;;;19.02;2.08;;;;;;;;;;5064541;28;20287;-71
2023/10/14 09:20:29;;;;;;;14.10;2.63;;;;;;;;;;5053871;28;20310;-74
2023/10/14 09:23:17;;;;;;;14.57;2.35;;;;;;;;;;5064904;28;20509;-73
2023/10/14 09:25:52;;;;;;;16.48;2.10;;;;;;;;;;5047184;28;20216;-69
2023/10/14 09:28:20;;;;;;;13.63;2.38;;;;;;;;;;5054212;28;20245;-72
2023/10/14 09:30:49;;;;;;;14.02;1.98;;;;;;;;;;5062201;28;20267;-72
2023/10/14 09:33:17;;;;;;;17.90;2.60;;;;;;;;;;5075731;28;20555;-74
2023/10/14 09:35:50;;;;;;;10.35;1.65;;;;;;;;;;5060830;28;20242;-72
2023/10/14 09:38:22;;;;;;;12.60;2.10;;;;;;;;;;5094564;28;20182;-72
2023/10/14 09:40:53;;;;;;;15.05;2.40;;;;;;;;;;5061497;28;20212;-72
2023/10/14 09:43:20;;;;;;;14.50;1.77;;;;;;;;;;5065972;28;20189;-71
2023/10/14 09:45:47;;;;;;;14.43;2.60;;;;;;;;;;5071002;28;20185;-72
2023/10/14 09:48:15;;;;;;;12.73;2.15;;;;;;;;;;5071918;28;20216;-73
2023/10/14 09:50:43;;;;;;;8.65;1.75;;;;;;;;;;5066646;28;20191;-71
2023/10/14 09:53:13;;;;;;;17.85;1.80;;;;;;;;;;5073822;28;20250;-71
2023/10/14 09:55:41;;;;;;;14.25;2.03;;;;;;;;;;5089467;28;20189;-73
2023/10/14 09:58:08;;;;;;;14.30;2.33;;;;;;;;;;5047180;28;20551;-71
2023/10/14 10:00:34;;;;;;;10.98;1.90;;;;;;;;;;5051706;28;20229;-71
2023/10/14 10:03:02;;;;;;;12.93;2.50;;;;;;;;;;5065544;28;20508;-73
2023/10/14 10:05:39;;;;;;;14.18;2.05;;;;;;;;;;5092057;28;20191;-71
2023/10/14 10:08:22;;;;;;;8.85;1.50;;;;;;;;;;5066924;28;20186;-72
2023/10/14 10:10:49;;;;;;;15.48;1.85;;;;;;;;;;5058044;28;20189;-71
2023/10/14 10:13:16;;;;;;;15.85;2.47;;;;;;;;;;5061884;28;20186;-73
2023/10/14 10:15:44;;;;;;;15.88;2.30;;;;;;;;;;5094729;28;20490;-71
2023/10/14 10:18:12;;;;;;;12.43;1.80;;;;;;;;;;5070939;28;20189;-73
2023/10/14 10:20:47;;;;;;;13.05;2.47;;;;;;;;;;5069720;28;20269;-73
2023/10/14 10:23:14;;;;;;;6.68;1.42;;;;;;;;;;5071331;28;20608;-72
2023/10/14 10:25:47;;;;;;;12.57;2.10;;;;;;;;;;5070495;28;20259;-72
2023/10/14 10:28:27;;;;;;;11.93;1.80;;;;;;;;;;5060286;28;20252;-72
2023/10/14 10:30:58;;;;;;;12.65;2.00;;;;;;;;;;5058683;28;20181;-72
2023/10/14 10:33:45;;;;;;;13.60;2.25;;;;;;;;;;5053634;28;20276;-72
2023/10/14 10:36:12;;;;;;;16.58;3.20;;;;;;;;;;5052175;28;20199;-72
2023/10/14 10:38:38;;;;;;;12.02;2.40;;;;;;;;;;5060177;28;20203;-71
2023/10/14 10:41:17;;;;;;;14.68;2.03;;;;;;;;;;5087766;28;20292;-72
2023/10/14 10:43:46;;;;;;;7.72;1.42;;;;;;;;;;5063347;28;20188;-70
2023/10/14 10:46:30;;;;;;;11.15;1.75;;;;;;;;;;5090048;28;20416;-72
2023/10/14 10:48:56;;;;;;;11.02;1.88;;;;;;;;;;5051653;28;20662;-72
2023/10/14 10:51:22;;;;;;;15.00;1.60;;;;;;;;;;5065640;28;20189;-71
2023/10/14 10:53:49;;;;;;;9.73;1.60;;;;;;;;;;5058003;28;20653;-72
2023/10/14 10:56:18;;;;;;;7.75;2.08;;;;;;;;;;5055252;28;20193;-71
2023/10/14 10:58:44;;;;;;;7.22;1.55;;;;;;;;;;5052218;28;20338;-70
2023/10/14 11:01:12;;;;;;;9.45;1.60;;;;;;;;;;5049646;28;20279;-71
2023/10/14 11:03:37;;;;;;;7.40;1.58;;;;;;;;;;5091163;28;20196;-72
2023/10/14 11:06:04;;;;;;;7.07;1.30;;;;;;;;;;5055676;28;20212;-71
2023/10/14 11:08:30;;;;;;;8.48;1.65;;;;;;;;;;5066809;28;20305;-71
2023/10/14 11:10:57;;;;;;;11.18;1.38;;;;;;;;;;5069986;28;20580;-71
2023/10/14 11:13:23;;;;;;;14.05;1.63;;;;;;;;;;5060250;28;20238;-71
2023/10/14 11:15:50;;;;;;;9.23;1.70;;;;;;;;;;5070447;28;20220;-71
2023/10/14 11:18:18;;;;;;;7.50;1.30;;;;;;;;;;5070646;28;20184;-72
2023/10/14 11:20:46;;;;;;;9.70;1.45;;;;;;;;;;5068905;28;20301;-70
2023/10/14 11:23:12;;;;;;;6.85;1.33;;;;;;;;;;5070093;28;20189;-72
2023/10/14 11:25:41;;;;;;;10.75;1.55;;;;;;;;;;5070175;28;20197;-71
2023/10/14 11:28:11;;;;;;;12.77;1.50;;;;;;;;;;5066091;28;20192;-71
2023/10/14 11:30:42;;;;;;;11.38;1.42;;;;;;;;;;5098546;28;20184;-69
2023/10/14 11:33:10;;;;;;;8.02;1.52;;;;;;;;;;5062260;28;20266;-71
2023/10/14 11:35:37;;;;;;;13.15;1.98;;;;;;;;;;5082290;28;20200;-72
2023/10/14 11:38:06;;;;;;;7.60;1.02;;;;;;;;;;5071363;28;20633;-70
2023/10/14 11:40:48;;;;;;;6.75;1.08;;;;;;;;;;5063069;28;20213;-71
2023/10/14 11:43:15;;;;;;;9.18;1.33;;;;;;;;;;5061327;28;20182;-71
2023/10/14 11:45:44;;;;;;;13.48;3.10;;;;;;;;;;5062374;28;20191;-70
2023/10/14 11:48:33;;;;;;;12.90;3.25;;;;;;;;;;5060941;28;20197;-71
2023/10/14 11:51:03;;;;;;;8.20;2.00;;;;;;;;;;5063982;28;20182;-71
2023/10/14 11:53:32;;;;;;;10.52;1.95;;;;;;;;;;5082003;28;20649;-70
2023/10/14 11:56:04;;;;;;;9.13;1.20;;;;;;;;;;5055162;28;20193;-70
2023/10/14 11:58:37;;;;;;;12.05;1.60;;;;;;;;;;5065082;28;20198;-70
2023/10/14 12:01:04;;;;;;;5.57;1.25;;;;;;;;;;5069358;28;20315;-71
2023/10/14 12:03:29;;;;;;;7.35;1.40;;;;;;;;;;5069500;28;20199;-71
2023/10/14 12:05:59;;;;;;;10.10;1.80;;;;;;;;;;5067365;28;20613;-71
2023/10/14 12:08:32;;;;;;;6.80;1.35;;;;;;;;;;5069485;28;20223;-69
2023/10/14 12:10:59;;;;;;;9.43;1.60;;;;;;;;;;5069080;28;20193;-71
2023/10/14 12:13:25;;;;;;;11.43;1.52;;;;;;;;;;5057004;28;20622;-71
2023/10/14 12:15:51;;;;;;;11.52;1.42;;;;;;;;;;5069636;28;20276;-72
2023/10/14 12:18:17;;;;;;;5.88;1.27;;;;;;;;;;5069002;28;20280;-71
2023/10/14 12:20:46;;;;;;;6.85;1.73;;;;;;;;;;5057701;28;20213;-71
2023/10/14 12:23:18;;;;;;;8.15;1.30;;;;;;;;;;5063675;28;20672;-72
2023/10/14 12:25:46;;;;;;;13.35;1.70;;;;;;;;;;5083694;28;20318;-71
2023/10/14 12:28:12;;;;;;;7.88;1.48;;;;;;;;;;5057431;28;20636;-72
2023/10/14 12:30:42;;;;;;;9.52;1.30;;;;;;;;;;5061735;28;20271;-70
2023/10/14 12:33:08;;;;;;;12.55;1.58;;;;;;;;;;5057609;28;20188;-70
2023/10/14 12:35:39;;;;;;;10.75;1.35;;;;;;;;;;5056060;28;20189;-71
2023/10/14 12:38:11;;;;;;;12.43;1.40;;;;;;;;;;5063259;28;20192;-70
2023/10/14 12:40:37;;;;;;;6.20;1.10;;;;;;;;;;5069483;28;20539;-72
2023/10/14 12:43:03;;;;;;;10.85;1.38;;;;;;;;;;5066052;28;20193;-71
2023/10/14 12:45:28;;;;;;;8.55;1.55;;;;;;;;;;5068384;28;20226;-72
2023/10/14 12:48:00;;;;;;;12.30;1.40;;;;;;;;;;5069745;28;20588;-71
2023/10/14 12:50:26;;;;;;;7.57;1.33;;;;;;;;;;5068475;28;20192;-72
2023/10/14 12:52:56;;;;;;;9.68;1.77;;;;;;;;;;5054193;28;20197;-71
2023/10/14 12:55:23;;;;;;;8.45;1.50;;;;;;;;;;5082812;28;20269;-74
2023/10/14 12:57:49;;;;;;;9.02;1.42;;;;;;;;;;5060840;28;20632;-74
2023/10/14 13:00:25;;;;;;;9.70;1.30;;;;;;;;;;5064367;28;20223;-75
2023/10/14 13:02:53;;;;;;;7.70;1.50;;;;;;;;;;5055811;28;20204;-76
2023/10/14 13:05:20;;;;;;;7.03;1.20;;;;;;;;;;5084950;28;20632;-73
2023/10/14 13:07:52;;;;;;;9.35;1.40;;;;;;;;;;5049822;28;20229;-76
2023/10/14 13:10:24;;;;;;;7.47;1.00;;;;;;;;;;5057306;28;20188;-72
2023/10/14 13:12:52;;;;;;;8.82;1.23;;;;;;;;;;5058283;28;20675;-75
2023/10/14 13:15:30;;;;;;;9.98;1.27;;;;;;;;;;5048671;28;20189;-75
2023/10/14 13:17:57;;;;;;;10.38;1.90;;;;;;;;;;5062806;28;20296;-74
2023/10/14 13:20:27;;;;;;;8.27;1.17;;;;;;;;;;5058270;28;20288;-74
2023/10/14 13:22:54;;;;;;;8.75;1.13;;;;;;;;;;5087095;28;20207;-74
2023/10/14 13:25:21;;;;;;;10.60;1.23;;;;;;;;;;5052843;28;20201;-74
2023/10/14 13:27:49;;;;;;;9.60;1.27;;;;;;;;;;5082081;28;20257;-74
2023/10/14 13:30:16;;;;;;;10.52;1.40;;;;;;;;;;5064599;28;20193;-74
2023/10/14 13:32:41;;;;;;;7.18;1.33;;;;;;;;;;5055414;28;20216;-72
2023/10/14 13:35:07;;;;;;;10.05;1.67;;;;;;;;;;5059227;28;20189;-77
2023/10/14 13:37:32;;;;;;;5.63;0.95;;;;;;;;;;5071048;28;20795;-77
2023/10/14 13:39:58;;;;;;;6.32;0.80;;;;;;;;;;5064171;28;20210;-73
2023/10/14 13:42:23;;;;;;;6.45;1.05;;;;;;;;;;5063266;28;20185;-76
2023/10/14 13:44:48;;;;;;;9.68;1.30;;;;;;;;;;5057697;28;20197;-76
2023/10/14 13:47:17;;;;;;;5.90;0.90;;;;;;;;;;5060265;28;20232;-72
2023/10/14 13:49:45;;;;;;;6.60;1.10;;;;;;;;;;5090379;28;20331;-77
2023/10/14 13:52:16;;;;;;;5.88;0.90;;;;;;;;;;5064207;28;20224;-73
2023/10/14 13:54:42;;;;;;;9.23;1.23;;;;;;;;;;5066023;28;20194;-77
2023/10/14 13:57:11;;;;;;;6.82;1.00;;;;;;;;;;5042832;28;20185;-76
2023/10/14 13:59:38;;;;;;;6.22;1.00;;;;;;;;;;5060641;28;20347;-75
2023/10/14 14:02:04;;;;;;;6.38;1.23;;;;;;;;;;5090487;28;20624;-76
2023/10/14 14:04:32;;;;;;;5.75;1.08;;;;;;;;;;5065179;28;20758;-74
2023/10/14 14:06:59;;;;;;;6.90;1.10;;;;;;;;;;5077733;28;20191;-75
2023/10/14 14:09:24;;;;;;;7.82;1.10;;;;;;;;;;5064899;28;20191;-73
2023/10/14 14:11:55;;;;;;;6.60;1.13;;;;;;;;;;5085524;28;20201;-73
2023/10/14 14:14:22;;;;;;;7.30;1.38;;;;;;;;;;5063689;28;20644;-72
2023/10/14 14:16:48;;;;;;;5.88;0.88;;;;;;;;;;5052216;28;20197;-73
2023/10/14 14:19:15;;;;;;;8.45;1.20;;;;;;;;;;5053544;28;20181;-72
2023/10/14 14:21:43;;;;;;;10.60;1.00;;;;;;;;;;5052511;28;20545;-72
2023/10/14 14:24:09;;;;;;;9.38;1.40;;;;;;;;;;5054728;28;20189;-73
2023/10/14 14:26:35;;;;;;;8.70;1.27;;;;;;;;;;5061840;28;20193;-72
2023/10/14 14:29:02;;;;;;;9.77;1.27;;;;;;;;;;5056352;28;20184;-72
2023/10/14 14:31:30;;;;;;;8.80;1.08;;;;;;;;;;5060766;28;20674;-73
2023/10/14 14:33:56;;;;;;;9.77;1.23;;;;;;;;;;5049910;28;20200;-72
2023/10/14 14:36:22;;;;;;;7.00;0.98;;;;;;;;;;5052555;28;20648;-73
2023/10/14 14:38:47;;;;;;;8.40;1.15;;;;;;;;;;5057970;28;20578;-71
2023/10/14 14:41:25;;;;;;;7.55;1.33;;;;;;;;;;5052152;28;20298;-71
2023/10/14 14:43:51;;;;;;;9.45;1.50;;;;;;;;;;5055264;28;20215;-71
2023/10/14 14:46:16;;;;;;;7.63;1.38;;;;;;;;;;5063538;28;20192;-71
2023/10/14 14:48:42;;;;;;;8.93;1.23;;;;;;;;;;5065819;28;20192;-72
2023/10/14 14:51:11;;;;;;;14.43;1.90;;;;;;;;;;5062004;28;20280;-71
2023/10/14 14:53:36;;;;;;;10.77;1.60;;;;;;;;;;5062822;28;20204;-71
2023/10/14 14:56:08;;;;;;;7.50;1.25;;;;;;;;;;5068562;28;20181;-71
2023/10/14 14:58:33;;;;;;;11.30;1.27;;;;;;;;;;5074724;28;20184;-72
2023/10/14 15:00:58;;;;;;;6.40;1.63;;;;;;;;;;5064576;28;20233;-70
2023/10/14 15:03:24;;;;;;;11.60;1.63;;;;;;;;;;5062948;28;20257;-71
2023/10/14 15:05:50;;;;;;;9.18;1.40;;;;;;;;;;5068100;28;20192;-73
2023/10/14 15:08:18;;;;;;;12.32;1.70;;;;;;;;;;5058786;28;20196;-72
2023/10/14 15:10:44;;;;;;;11.10;1.92;;;;;;;;;;5075560;28;20192;-71
2023/10/14 15:13:11;;;;;;;12.60;1.92;;;;;;;;;;5070524;28;20188;-71